Time;durP1;ratioP1;P1;durP2;ratioP2;P2;SDS_P1;SDS_P2;PMS_P1;PMS_P2;Temp;Humidity;BMP_temperature;BMP_pressure;BME280_temperature;BME280_humidity;BME280_pressure;Samples;Min_cycle;Max_cycle;Signal;HPM_P1;HPM_P2
2023/01/17 00:01:50;;;;;;;0.95;0.85;;;7.00;99.90;;;;;;5095194;28;20051;-36
2023/01/17 00:09:54;;;;;;;2.13;0.75;;;6.90;99.90;;;;;;5094404;28;20039;-34
2023/01/17 00:12:25;;;;;;;1.58;0.90;;;7.00;99.90;;;;;;5094792;28;20040;-35
2023/01/17 00:14:53;;;;;;;2.05;0.93;;;6.90;99.90;;;;;;5094298;28;20056;-35
2023/01/17 00:17:20;;;;;;;2.40;1.00;;;6.90;99.90;;;;;;5094693;28;20047;-35
2023/01/17 01:34:58;;;;;;;1.45;0.80;;;6.90;99.90;;;;;;5092819;28;20070;-35
2023/01/17 01:37:23;;;;;;;0.95;0.82;;;6.90;99.90;;;;;;5092444;28;20059;-36
2023/01/17 01:39:49;;;;;;;1.42;0.80;;;6.90;99.90;;;;;;5092619;28;20493;-36
2023/01/17 01:42:15;;;;;;;1.10;0.70;;;6.90;99.90;;;;;;5091519;28;20198;-36
2023/01/17 01:44:48;;;;;;;1.23;0.80;;;6.80;99.90;;;;;;5093079;28;20027;-34
2023/01/17 01:47:32;;;;;;;1.90;0.80;;;6.80;99.90;;;;;;5092810;28;20020;-34
2023/01/17 01:50:00;;;;;;;1.55;0.88;;;6.80;99.90;;;;;;5092365;28;20107;-35
2023/01/17 01:52:29;;;;;;;2.30;0.90;;;6.80;99.90;;;;;;5092322;28;20031;-34
2023/01/17 01:54:59;;;;;;;2.00;1.10;;;6.80;99.90;;;;;;5092134;28;20023;-34
2023/01/17 01:57:29;;;;;;;1.83;0.70;;;6.80;99.90;;;;;;5091923;28;20060;-35
2023/01/17 01:59:58;;;;;;;1.60;0.95;;;6.80;99.90;;;;;;5092097;28;20039;-35
2023/01/17 02:02:25;;;;;;;1.60;0.82;;;6.80;99.90;;;;;;5092177;28;20020;-36
2023/01/17 02:04:51;;;;;;;1.00;0.90;;;6.80;99.90;;;;;;5092586;28;20457;-34
2023/01/17 02:07:23;;;;;;;3.00;0.93;;;6.80;99.90;;;;;;5091848;28;20111;-35
2023/01/17 02:09:49;;;;;;;1.30;0.77;;;6.80;99.90;;;;;;5092016;28;20019;-36
2023/01/17 02:12:16;;;;;;;3.83;0.90;;;6.80;99.90;;;;;;5092147;28;20024;-35
2023/01/17 02:14:41;;;;;;;2.17;0.85;;;6.80;99.90;;;;;;5092166;28;20032;-35
2023/01/17 02:17:16;;;;;;;2.28;0.80;;;6.80;99.90;;;;;;5091801;28;20501;-36
2023/01/17 02:20:06;;;;;;;1.40;0.75;;;6.80;99.90;;;;;;5094210;28;20059;-35
2023/01/17 02:23:14;;;;;;;1.58;0.80;;;6.80;99.90;;;;;;5091780;28;20459;-35
2023/01/17 02:25:58;;;;;;;2.65;0.77;;;6.80;99.90;;;;;;5092099;28;20374;-34
2023/01/17 02:28:42;;;;;;;1.10;0.80;;;6.80;99.90;;;;;;5091539;28;20059;-34
2023/01/17 02:31:28;;;;;;;1.42;0.90;;;6.80;99.90;;;;;;5091919;28;20020;-34
2023/01/17 02:34:05;;;;;;;1.60;0.88;;;6.80;99.90;;;;;;5092167;28;20020;-35
2023/01/17 02:36:40;;;;;;;1.20;0.85;;;6.80;99.90;;;;;;5091485;28;20020;-35
2023/01/17 02:39:18;;;;;;;1.38;0.80;;;6.80;99.90;;;;;;5091774;28;20020;-34
2023/01/17 02:41:50;;;;;;;1.13;0.90;;;6.80;99.90;;;;;;5093882;28;20532;-35
2023/01/17 02:44:18;;;;;;;1.58;0.80;;;6.80;99.90;;;;;;5091683;28;20212;-35
2023/01/17 02:46:56;;;;;;;1.05;0.85;;;6.80;99.90;;;;;;5091314;28;20030;-36
2023/01/17 02:49:26;;;;;;;1.63;0.70;;;6.80;99.90;;;;;;5091435;28;20017;-36
2023/01/17 02:52:16;;;;;;;1.00;0.73;;;6.80;99.90;;;;;;5091644;28;20020;-34
2023/01/17 02:55:00;;;;;;;1.58;0.85;;;6.80;99.90;;;;;;5091517;28;20024;-35
2023/01/17 02:57:44;;;;;;;1.57;0.90;;;6.80;99.90;;;;;;5091038;28;20059;-35
2023/01/17 03:00:55;;;;;;;1.45;1.00;;;6.80;99.90;;;;;;5091550;28;20107;-34
2023/01/17 03:03:49;;;;;;;1.00;0.88;;;6.90;99.90;;;;;;5068979;28;20046;-35
2023/01/17 03:06:38;;;;;;;0.80;0.70;;;8.00;99.90;;;;;;5091210;28;20027;-36
2023/01/17 03:09:05;;;;;;;1.02;0.57;;;9.40;99.90;;;;;;5091263;28;20047;-36
2023/01/17 03:11:31;;;;;;;1.05;0.85;;;10.30;99.90;;;;;;5091322;28;20539;-35
2023/01/17 03:13:57;;;;;;;1.02;0.55;;;11.00;99.90;;;;;;5091268;28;20028;-36
2023/01/17 03:16:26;;;;;;;1.15;0.68;;;11.20;99.90;;;;;;5091217;28;20028;-35
2023/01/17 03:18:52;;;;;;;1.27;0.50;;;10.60;99.90;;;;;;5091369;28;20484;-36
2023/01/17 03:21:18;;;;;;;1.35;0.70;;;10.00;99.90;;;;;;5091561;28;20367;-35
2023/01/17 03:23:44;;;;;;;1.65;0.70;;;9.60;99.90;;;;;;5091861;28;20103;-36
2023/01/17 03:26:10;;;;;;;1.33;0.90;;;9.20;99.90;;;;;;5091306;28;20119;-36
2023/01/17 03:28:35;;;;;;;0.85;0.65;;;8.90;99.90;;;;;;5091536;28;20051;-36
2023/01/17 03:31:01;;;;;;;1.33;0.70;;;8.60;99.90;;;;;;5092004;28;20030;-35
2023/01/17 03:33:26;;;;;;;0.70;0.60;;;8.40;99.90;;;;;;5091636;28;20031;-34
2023/01/17 03:35:53;;;;;;;1.70;0.70;;;8.20;99.90;;;;;;5093959;28;20107;-35
2023/01/17 03:38:19;;;;;;;2.05;0.80;;;8.00;99.90;;;;;;5095635;28;20024;-35
2023/01/17 03:40:45;;;;;;;1.02;0.70;;;7.80;99.90;;;;;;5095739;28;20481;-36
2023/01/17 03:43:10;;;;;;;1.05;0.70;;;7.60;99.90;;;;;;5095414;28;20032;-34
2023/01/17 03:45:36;;;;;;;0.95;0.60;;;7.50;99.90;;;;;;5095286;28;20031;-35
2023/01/17 03:48:02;;;;;;;0.98;0.70;;;7.50;99.90;;;;;;5094570;28;20023;-35
2023/01/17 03:50:28;;;;;;;1.95;0.77;;;7.40;99.90;;;;;;5095143;28;20518;-35
2023/01/17 03:52:53;;;;;;;1.10;0.80;;;7.30;99.90;;;;;;5094668;28;20038;-35
2023/01/17 03:55:19;;;;;;;1.02;0.70;;;7.30;99.90;;;;;;5094490;28;20035;-35
2023/01/17 03:57:44;;;;;;;0.80;0.73;;;7.20;99.90;;;;;;5094658;28;20040;-36
2023/01/17 04:00:11;;;;;;;2.22;1.10;;;7.10;99.90;;;;;;5094670;28;20142;-34
2023/01/17 04:02:36;;;;;;;1.40;0.90;;;7.10;99.90;;;;;;5094484;28;20019;-34
2023/01/17 04:05:02;;;;;;;1.40;1.00;;;7.80;99.90;;;;;;5094481;28;20035;-35
2023/01/17 04:07:28;;;;;;;2.25;0.95;;;9.00;99.90;;;;;;5096441;28;20473;-35
2023/01/17 04:09:53;;;;;;;2.10;0.85;;;9.80;99.90;;;;;;5094243;28;20036;-34
2023/01/17 04:12:19;;;;;;;1.10;0.80;;;9.50;99.90;;;;;;5094807;28;20063;-35
2023/01/17 04:14:44;;;;;;;1.58;1.00;;;9.20;99.90;;;;;;5094419;28;20035;-36
2023/01/17 04:17:16;;;;;;;2.13;0.85;;;8.80;99.90;;;;;;5094034;28;20097;-34
2023/01/17 04:19:42;;;;;;;1.67;0.90;;;8.50;99.90;;;;;;5094132;28;20107;-35
2023/01/17 04:22:08;;;;;;;3.05;0.90;;;8.20;99.90;;;;;;5095611;28;20107;-36
2023/01/17 04:24:36;;;;;;;1.63;0.80;;;8.00;99.90;;;;;;5095538;28;20051;-34
2023/01/17 04:27:05;;;;;;;1.83;0.80;;;7.80;99.90;;;;;;5093989;28;20020;-35
2023/01/17 04:29:31;;;;;;;1.70;1.00;;;7.70;99.90;;;;;;5093901;28;20069;-35
2023/01/17 04:31:56;;;;;;;1.00;0.85;;;7.50;99.90;;;;;;5093940;28;20028;-34
2023/01/17 04:34:25;;;;;;;1.08;0.90;;;7.40;99.90;;;;;;5093916;28;20529;-36
2023/01/17 04:36:50;;;;;;;1.52;1.00;;;7.30;99.90;;;;;;5093538;28;20078;-35
2023/01/17 04:39:19;;;;;;;1.70;1.10;;;7.20;99.90;;;;;;5093704;28;20027;-34
2023/01/17 04:41:44;;;;;;;1.45;1.00;;;7.10;99.90;;;;;;5093674;28;20050;-35
2023/01/17 04:44:10;;;;;;;2.35;1.08;;;7.10;99.90;;;;;;5093924;28;20028;-35
2023/01/17 04:46:36;;;;;;;3.10;1.00;;;7.00;99.90;;;;;;5093237;28;20020;-35
2023/01/17 04:49:01;;;;;;;3.72;1.08;;;7.00;99.90;;;;;;5093674;28;20028;-34
2023/01/17 04:51:27;;;;;;;1.65;1.13;;;6.90;99.90;;;;;;5093455;28;20020;-35
2023/01/17 04:53:52;;;;;;;3.13;0.93;;;6.90;99.90;;;;;;5093569;28;20371;-35
2023/01/17 04:56:18;;;;;;;1.60;1.13;;;6.90;99.90;;;;;;5093333;28;20035;-34
2023/01/17 04:58:44;;;;;;;1.27;1.00;;;6.90;99.90;;;;;;5094033;28;20031;-34
2023/01/17 05:01:09;;;;;;;1.15;0.85;;;6.80;99.90;;;;;;5095851;28;20032;-34
2023/01/17 05:03:36;;;;;;;1.80;1.27;;;6.90;99.90;;;;;;5094361;28;20385;-34
2023/01/17 05:06:02;;;;;;;1.65;1.08;;;7.90;99.90;;;;;;5093805;28;20038;-34
2023/01/17 05:08:27;;;;;;;1.13;0.90;;;9.10;99.90;;;;;;5095535;28;20502;-36
2023/01/17 05:10:53;;;;;;;2.22;1.10;;;10.00;99.90;;;;;;5093593;28;20024;-34
2023/01/17 05:13:18;;;;;;;2.17;1.00;;;10.70;99.90;;;;;;5093827;28;20024;-34
2023/01/17 05:15:45;;;;;;;1.00;0.82;;;11.00;99.90;;;;;;5094880;28;20034;-35
2023/01/17 05:18:13;;;;;;;1.20;0.93;;;10.50;99.90;;;;;;5091808;28;20034;-35
2023/01/17 05:20:38;;;;;;;1.52;0.90;;;9.90;99.90;;;;;;5093070;28;20031;-34
2023/01/17 05:23:04;;;;;;;2.20;0.80;;;9.50;99.90;;;;;;5094362;28;20145;-35
2023/01/17 05:25:34;;;;;;;0.90;0.80;;;9.10;99.90;;;;;;5094157;28;20504;-35
2023/01/17 05:28:00;;;;;;;1.92;0.98;;;8.80;99.90;;;;;;5093269;28;20021;-35
2023/01/17 05:30:27;;;;;;;1.17;0.90;;;8.50;99.90;;;;;;5093519;28;20025;-34
2023/01/17 05:32:55;;;;;;;1.13;0.90;;;8.20;99.90;;;;;;5093215;28;20084;-34
2023/01/17 05:35:24;;;;;;;1.20;0.90;;;8.00;99.90;;;;;;5093682;28;20043;-36
2023/01/17 05:37:50;;;;;;;1.98;1.00;;;7.80;99.90;;;;;;5093302;28;20158;-35
2023/01/17 05:40:21;;;;;;;1.67;1.10;;;7.60;99.90;;;;;;5094228;28;20020;-35
2023/01/17 05:42:48;;;;;;;2.75;1.55;;;7.50;99.90;;;;;;5093538;28;20028;-35
2023/01/17 05:45:15;;;;;;;8.68;4.00;;;7.40;99.90;;;;;;5093461;28;20062;-34
2023/01/17 05:47:52;;;;;;;4.43;2.40;;;7.30;99.90;;;;;;5092496;28;20094;-35
2023/01/17 05:50:23;;;;;;;10.98;6.18;;;7.20;99.90;;;;;;5092486;28;20511;-35
2023/01/17 05:52:55;;;;;;;7.30;4.20;;;7.10;99.90;;;;;;5092510;28;20024;-35
2023/01/17 05:55:22;;;;;;;5.15;3.30;;;7.10;99.90;;;;;;5092336;28;20039;-36
2023/01/17 05:57:48;;;;;;;5.63;2.97;;;7.00;99.90;;;;;;5091397;28;20040;-34
2023/01/17 06:00:15;;;;;;;6.60;3.33;;;7.00;99.90;;;;;;5092188;28;20024;-34
2023/01/17 06:02:41;;;;;;;10.35;5.82;;;6.90;99.90;;;;;;5094797;28;20034;-35
2023/01/17 06:05:07;;;;;;;11.50;6.00;;;7.60;99.90;;;;;;5092131;28;20094;-35
2023/01/17 06:07:33;;;;;;;7.63;4.30;;;8.80;99.90;;;;;;5092296;28;20108;-35
2023/01/17 06:09:59;;;;;;;6.03;3.65;;;9.80;99.90;;;;;;5093825;28;20028;-35
2023/01/17 06:12:24;;;;;;;8.10;4.45;;;10.50;99.90;;;;;;5092031;28;20544;-36
2023/01/17 06:14:50;;;;;;;6.45;3.75;;;11.00;99.90;;;;;;5091929;28;20119;-35
2023/01/17 06:17:15;;;;;;;6.97;4.13;;;10.60;99.90;;;;;;5091625;28;20024;-33
2023/01/17 06:19:41;;;;;;;6.00;3.65;;;10.00;99.90;;;;;;5091829;28;20049;-35
2023/01/17 06:22:07;;;;;;;5.75;3.58;;;9.50;99.90;;;;;;5091722;28;20099;-35
2023/01/17 06:24:32;;;;;;;5.45;3.42;;;9.10;99.90;;;;;;5091863;28;20385;-35
2023/01/17 06:26:58;;;;;;;5.95;3.60;;;8.80;99.90;;;;;;5091488;28;20020;-34
2023/01/17 06:29:24;;;;;;;6.63;3.17;;;8.50;99.90;;;;;;5091601;28;20020;-34
2023/01/17 06:31:50;;;;;;;3.70;2.67;;;8.20;99.90;;;;;;5091955;28;20032;-34
2023/01/17 06:34:15;;;;;;;4.95;3.35;;;8.00;99.90;;;;;;5091708;28;20020;-34
2023/01/17 06:36:41;;;;;;;6.20;3.72;;;7.80;99.90;;;;;;5091371;28;20024;-35
2023/01/17 06:39:08;;;;;;;5.00;3.45;;;7.60;99.90;;;;;;5091554;28;20549;-34
2023/01/17 06:41:34;;;;;;;5.60;3.30;;;7.50;99.90;;;;;;5091698;28;20020;-36
2023/01/17 06:44:00;;;;;;;6.10;2.88;;;7.40;99.90;;;;;;5091614;28;20146;-34
2023/01/17 06:46:25;;;;;;;4.50;3.03;;;7.20;99.90;;;;;;5090324;28;20500;-35
2023/01/17 06:48:51;;;;;;;5.63;3.40;;;7.20;99.90;;;;;;5092363;28;20028;-34
2023/01/17 06:51:17;;;;;;;8.10;4.05;;;7.10;99.90;;;;;;5093508;28;20024;-36
2023/01/17 06:53:42;;;;;;;8.90;4.63;;;7.00;99.90;;;;;;5091998;28;20043;-35
2023/01/17 06:56:08;;;;;;;6.30;3.83;;;7.00;99.90;;;;;;5092078;28;20115;-34
2023/01/17 06:58:34;;;;;;;6.72;4.10;;;6.90;99.90;;;;;;5091979;28;20032;-34
2023/01/17 07:01:07;;;;;;;7.13;3.78;;;6.80;99.90;;;;;;5091389;28;20032;-35
2023/01/17 07:03:33;;;;;;;6.97;3.65;;;7.00;99.90;;;;;;5091039;28;20035;-36
2023/01/17 07:06:01;;;;;;;6.50;3.63;;;8.00;99.90;;;;;;5091711;28;20389;-34
2023/01/17 07:08:27;;;;;;;6.45;3.70;;;9.10;99.90;;;;;;5092724;28;20028;-35
2023/01/17 07:10:58;;;;;;;5.07;3.35;;;10.00;99.90;;;;;;5094217;28;20048;-34
2023/01/17 07:13:24;;;;;;;5.75;2.92;;;10.70;99.90;;;;;;5095500;28;20067;-34
2023/01/17 07:15:50;;;;;;;5.75;3.00;;;10.80;99.90;;;;;;5095528;28;20055;-36
2023/01/17 07:18:21;;;;;;;9.38;3.42;;;10.10;99.90;;;;;;5095432;28;20028;-34
2023/01/17 07:20:51;;;;;;;4.18;3.10;;;9.60;99.90;;;;;;5095406;28;20046;-36
2023/01/17 07:23:18;;;;;;;5.65;3.20;;;9.10;99.90;;;;;;5095219;28;20024;-35
2023/01/17 07:25:50;;;;;;;5.75;3.10;;;8.80;99.90;;;;;;5095117;28;20032;-34
2023/01/17 07:28:15;;;;;;;4.60;3.22;;;8.50;99.90;;;;;;5095089;28;20491;-36
2023/01/17 07:30:41;;;;;;;7.10;3.25;;;8.20;99.90;;;;;;5095190;28;20032;-35
2023/01/17 07:33:08;;;;;;;8.40;3.75;;;7.90;99.90;;;;;;5095157;28;20020;-35
2023/01/17 07:35:34;;;;;;;5.90;3.15;;;7.70;99.90;;;;;;5095383;28;20378;-36
2023/01/17 07:38:00;;;;;;;6.28;3.70;;;7.50;99.90;;;;;;5094784;28;20020;-35
2023/01/17 07:40:26;;;;;;;6.38;3.58;;;7.30;99.90;;;;;;5095078;28;20020;-35
2023/01/17 07:42:51;;;;;;;4.82;3.03;;;7.20;99.90;;;;;;5097525;28;20024;-36
2023/01/17 07:45:17;;;;;;;8.32;4.95;;;7.10;99.90;;;;;;5095057;28;20080;-35
2023/01/17 07:47:43;;;;;;;9.55;4.88;;;7.00;99.90;;;;;;5094562;28;20055;-35
2023/01/17 07:50:09;;;;;;;8.88;4.88;;;7.00;99.90;;;;;;5095295;28;20474;-35
2023/01/17 07:52:35;;;;;;;7.63;4.68;;;6.90;99.90;;;;;;5096543;28;20024;-35
2023/01/17 07:55:00;;;;;;;8.18;4.57;;;6.90;99.90;;;;;;5094688;28;20115;-34
2023/01/17 07:57:26;;;;;;;6.47;4.18;;;6.80;99.90;;;;;;5094187;28;20096;-34
2023/01/17 07:59:52;;;;;;;6.07;3.47;;;6.80;99.90;;;;;;5094656;28;20032;-35
2023/01/17 08:02:20;;;;;;;7.40;3.90;;;6.70;99.90;;;;;;5094552;28;20028;-34
2023/01/17 08:04:46;;;;;;;7.03;3.75;;;6.70;99.90;;;;;;5094396;28;20036;-35
2023/01/17 08:07:13;;;;;;;7.60;3.90;;;6.70;99.90;;;;;;5094787;28;20035;-35
2023/01/17 08:09:42;;;;;;;8.13;4.07;;;6.70;99.90;;;;;;5094184;28;20055;-34
2023/01/17 08:12:08;;;;;;;9.05;3.45;;;6.70;99.90;;;;;;5094382;28;20107;-34
2023/01/17 08:14:34;;;;;;;9.90;3.58;;;6.60;99.90;;;;;;5094874;28;20405;-35
2023/01/17 08:17:15;;;;;;;7.22;3.95;;;6.60;99.90;;;;;;5094347;28;20095;-35
2023/01/17 08:19:41;;;;;;;8.85;3.40;;;6.60;99.90;;;;;;5094612;28;20031;-36
2023/01/17 08:22:07;;;;;;;8.85;4.07;;;6.60;99.90;;;;;;5093582;28;20036;-36
2023/01/17 08:24:32;;;;;;;9.38;4.13;;;6.60;99.90;;;;;;5094525;28;20098;-34
2023/01/17 08:26:58;;;;;;;7.30;3.63;;;6.60;99.90;;;;;;5095734;28;20020;-34
2023/01/17 08:29:24;;;;;;;9.30;4.80;;;6.60;99.90;;;;;;5095152;28;20025;-36
2023/01/17 08:31:49;;;;;;;10.70;4.68;;;6.60;99.90;;;;;;5094488;28;20050;-34
2023/01/17 08:34:15;;;;;;;11.98;5.22;;;6.60;99.90;;;;;;5094612;28;20519;-36
2023/01/17 08:36:46;;;;;;;12.30;4.85;;;6.60;99.90;;;;;;5094304;28;20020;-34
2023/01/17 08:39:13;;;;;;;7.70;4.28;;;6.60;99.90;;;;;;5093979;28;20035;-35
2023/01/17 08:41:38;;;;;;;7.95;3.92;;;6.60;99.90;;;;;;5094787;28;20020;-35
2023/01/17 08:44:04;;;;;;;9.00;3.92;;;6.60;99.90;;;;;;5094234;28;20024;-35
2023/01/17 08:46:30;;;;;;;9.98;4.45;;;6.60;99.90;;;;;;5093846;28;20059;-35
2023/01/17 08:48:58;;;;;;;7.03;4.43;;;6.60;99.90;;;;;;5093659;28;20035;-34
2023/01/17 08:51:30;;;;;;;6.45;3.60;;;6.70;99.90;;;;;;5094484;28;20474;-35
2023/01/17 08:53:56;;;;;;;10.02;4.72;;;6.70;99.90;;;;;;5093643;28;20052;-33
2023/01/17 08:56:25;;;;;;;8.38;4.30;;;6.70;99.90;;;;;;5093158;28;20056;-36
2023/01/17 08:58:51;;;;;;;7.00;4.22;;;6.70;99.90;;;;;;5093802;28;20107;-34
2023/01/17 09:01:17;;;;;;;8.95;3.85;;;6.70;99.90;;;;;;5093468;28;20509;-35
2023/01/17 09:03:44;;;;;;;9.05;4.57;;;6.70;99.90;;;;;;5093274;28;20375;-35
2023/01/17 09:06:14;;;;;;;9.18;3.97;;;6.70;99.90;;;;;;5093027;28;20132;-36
2023/01/17 09:08:45;;;;;;;7.70;4.13;;;6.50;99.90;;;;;;5093181;28;20024;-35
2023/01/17 09:11:13;;;;;;;10.95;5.78;;;6.40;99.90;;;;;;5093405;28;20030;-35
2023/01/17 09:13:38;;;;;;;13.48;7.70;;;6.40;99.90;;;;;;5093167;28;20604;-36
2023/01/17 09:16:05;;;;;;;15.32;8.63;;;6.40;99.90;;;;;;5092780;28;20122;-35
2023/01/17 09:18:32;;;;;;;12.98;8.02;;;6.50;99.90;;;;;;5092906;28;20032;-35
2023/01/17 09:20:58;;;;;;;14.98;8.80;;;6.60;99.90;;;;;;5093036;28;20028;-35
2023/01/17 09:23:28;;;;;;;14.60;9.18;;;6.70;99.90;;;;;;5092931;28;20535;-36
2023/01/17 09:25:56;;;;;;;18.17;9.43;;;6.80;99.90;;;;;;5092733;28;20416;-36
2023/01/17 09:28:23;;;;;;;21.65;9.55;;;6.80;99.90;;;;;;5092755;28;20431;-36
2023/01/17 09:30:49;;;;;;;18.17;9.68;;;6.90;99.90;;;;;;5092728;28;20488;-36
2023/01/17 09:33:16;;;;;;;15.45;8.43;;;6.90;99.90;;;;;;5092179;28;20460;-36
2023/01/17 09:35:43;;;;;;;14.98;8.32;;;7.00;99.90;;;;;;5092879;28;20028;-36
2023/01/17 09:38:08;;;;;;;16.15;7.97;;;7.10;99.90;;;;;;5094861;28;20032;-36
2023/01/17 09:40:37;;;;;;;18.73;10.57;;;7.20;99.90;;;;;;5095223;28;20028;-36
2023/01/17 09:43:06;;;;;;;17.35;10.07;;;7.20;99.90;;;;;;5093967;28;20024;-36
2023/01/17 09:45:33;;;;;;;19.52;10.07;;;7.30;99.90;;;;;;5092438;28;20046;-36
2023/01/17 09:48:04;;;;;;;18.58;10.00;;;7.40;99.90;;;;;;5092239;28;20096;-36
2023/01/17 09:50:31;;;;;;;15.80;9.82;;;7.50;99.90;;;;;;5092486;28;20020;-36
2023/01/17 09:53:04;;;;;;;18.58;8.93;;;7.50;99.90;;;;;;5092464;28;20036;-36
2023/01/17 09:55:56;;;;;;;13.35;9.07;;;7.60;99.90;;;;;;5092464;28;20020;-35
2023/01/17 09:58:43;;;;;;;15.32;9.30;;;7.70;99.90;;;;;;5089446;28;20044;-36
2023/01/17 10:01:27;;;;;;;13.98;8.57;;;7.80;99.90;;;;;;5091956;28;20032;-36
2023/01/17 10:04:26;;;;;;;14.30;9.13;;;7.80;99.90;;;;;;5092129;28;20424;-36
2023/01/17 10:07:16;;;;;;;10.65;7.13;;;7.90;99.90;;;;;;5092019;28;20028;-36
2023/01/17 10:10:10;;;;;;;12.95;7.05;;;8.00;99.90;;;;;;5092066;28;20032;-36
2023/01/17 10:12:57;;;;;;;12.73;7.38;;;8.10;99.90;;;;;;5092508;28;20381;-35
2023/01/17 10:15:25;;;;;;;11.40;6.75;;;8.20;99.90;;;;;;5092155;28;20063;-35
2023/01/17 10:18:31;;;;;;;14.70;7.88;;;8.20;99.90;;;;;;5091571;28;20103;-35
2023/01/17 10:21:28;;;;;;;14.10;8.18;;;8.30;99.90;;;;;;5092040;28;20024;-35
2023/01/17 10:24:15;;;;;;;12.02;6.53;;;8.40;99.90;;;;;;5091981;28;20028;-36
2023/01/17 10:26:42;;;;;;;9.02;5.68;;;8.40;99.90;;;;;;5091697;28;20034;-35
2023/01/17 10:29:17;;;;;;;10.52;5.55;;;8.50;99.90;;;;;;5091749;28;20102;-35
2023/01/17 10:31:54;;;;;;;9.75;5.40;;;8.50;99.90;;;;;;5092785;28;20020;-35
2023/01/17 10:34:31;;;;;;;11.55;5.53;;;8.60;99.90;;;;;;5092633;28;20049;-35
2023/01/17 10:37:18;;;;;;;9.82;5.40;;;8.70;99.90;;;;;;5092750;28;20024;-35
2023/01/17 10:39:46;;;;;;;12.82;5.25;;;8.80;99.90;;;;;;5091932;28;20602;-36
2023/01/17 10:42:23;;;;;;;7.22;4.63;;;8.80;99.90;;;;;;5091986;28;20078;-35
2023/01/17 10:44:57;;;;;;;7.75;4.72;;;8.90;99.90;;;;;;5092593;28;20028;-35
2023/01/17 10:47:23;;;;;;;7.28;4.00;;;8.90;99.90;;;;;;5091718;28;20035;-35
2023/01/17 10:49:56;;;;;;;5.78;4.05;;;9.00;99.90;;;;;;5091688;28;20020;-35
2023/01/17 10:52:47;;;;;;;7.88;4.20;;;9.00;99.90;;;;;;5091465;28;20498;-36
2023/01/17 10:55:31;;;;;;;7.70;3.80;;;9.10;99.90;;;;;;5091396;28;20031;-35
2023/01/17 10:57:57;;;;;;;5.95;3.70;;;9.10;99.90;;;;;;5091010;28;20114;-35
2023/01/17 11:00:55;;;;;;;5.22;3.25;;;9.20;99.90;;;;;;5091407;28;20129;-35
2023/01/17 11:03:22;;;;;;;4.03;3.08;;;9.20;99.90;;;;;;5091303;28;20435;-34
2023/01/17 11:06:18;;;;;;;5.93;3.08;;;9.50;99.90;;;;;;5091108;28;20038;-34
2023/01/17 11:09:09;;;;;;;4.70;2.70;;;9.50;99.90;;;;;;5091265;28;20024;-35
2023/01/17 11:11:47;;;;;;;5.72;2.83;;;9.60;99.90;;;;;;5091171;28;20024;-35
2023/01/17 11:14:24;;;;;;;6.03;2.67;;;9.50;99.90;;;;;;5091179;28;20059;-35
2023/01/17 11:17:01;;;;;;;5.78;2.70;;;9.60;99.90;;;;;;5091042;28;20032;-35
2023/01/17 11:19:34;;;;;;;5.72;2.85;;;9.60;99.90;;;;;;5091112;28;20035;-35
2023/01/17 11:22:05;;;;;;;4.43;2.58;;;9.60;99.90;;;;;;5089803;28;20027;-35
2023/01/17 11:24:47;;;;;;;4.70;2.60;;;9.50;99.90;;;;;;5091149;28;20013;-35
2023/01/17 11:27:33;;;;;;;4.88;2.60;;;9.50;99.90;;;;;;5090834;28;20031;-35
2023/01/17 11:30:05;;;;;;;3.92;2.22;;;9.50;99.90;;;;;;5091995;28;20022;-35
2023/01/17 11:32:33;;;;;;;3.60;2.35;;;9.50;99.90;;;;;;5091214;28;20115;-34
2023/01/17 11:35:24;;;;;;;3.90;2.08;;;9.50;99.90;;;;;;5090997;28;20028;-34
2023/01/17 11:37:55;;;;;;;5.22;2.08;;;9.50;99.90;;;;;;5088175;28;20032;-34
2023/01/17 11:40:26;;;;;;;4.68;2.35;;;9.40;99.90;;;;;;5091420;28;20466;-35
2023/01/17 11:43:19;;;;;;;2.45;1.60;;;9.40;99.90;;;;;;5091115;28;20028;-35
2023/01/17 11:46:06;;;;;;;4.70;1.35;;;9.40;99.90;;;;;;5091168;28;20020;-35
2023/01/17 11:48:37;;;;;;;3.78;1.90;;;9.40;99.90;;;;;;5086819;28;20502;-35
2023/01/17 11:51:12;;;;;;;4.03;1.77;;;9.40;99.90;;;;;;5091026;28;20050;-34
2023/01/17 11:53:43;;;;;;;3.00;1.58;;;9.40;99.90;;;;;;5091448;28;20385;-34
2023/01/17 11:56:17;;;;;;;2.92;1.50;;;9.40;99.90;;;;;;5092235;28;20039;-35
2023/01/17 11:58:44;;;;;;;3.45;1.70;;;9.40;99.90;;;;;;5094557;28;20041;-34
2023/01/17 12:01:28;;;;;;;3.33;1.60;;;9.40;99.90;;;;;;5094576;28;20130;-34
2023/01/17 12:04:23;;;;;;;3.10;1.83;;;9.40;99.90;;;;;;5095455;28;20077;-34
2023/01/17 12:07:20;;;;;;;2.53;1.65;;;9.50;99.90;;;;;;5094336;28;20430;-35
2023/01/17 12:10:20;;;;;;;3.13;1.55;;;9.40;99.90;;;;;;5095815;28;20016;-35
2023/01/17 12:15:56;;;;;;;3.03;1.63;;;9.30;99.90;;;;;;5096423;28;20081;-34
2023/01/17 12:19:02;;;;;;;2.20;1.63;;;9.20;99.90;;;;;;5094285;28;20046;-34
2023/01/17 12:21:27;;;;;;;;;;;9.10;99.90;;;;;;5097989;28;20020;-35
2023/01/17 12:24:08;;;;;;;2.72;1.58;;;8.90;99.90;;;;;;5095157;28;20062;-35
2023/01/17 12:26:53;;;;;;;2.38;1.35;;;8.80;99.90;;;;;;5093866;28;20504;-35
2023/01/17 12:29:51;;;;;;;5.10;2.05;;;8.80;99.90;;;;;;5094033;28;20032;-35
2023/01/17 12:32:28;;;;;;;3.55;1.65;;;8.70;99.90;;;;;;5094237;28;20028;-34
2023/01/17 12:35:16;;;;;;;3.28;1.90;;;8.60;99.90;;;;;;5094728;28;20028;-34
2023/01/17 12:37:49;;;;;;;1.95;1.40;;;8.60;99.90;;;;;;5094918;28;20439;-34
2023/01/17 12:40:35;;;;;;;4.00;1.80;;;8.50;99.90;;;;;;5093828;28;20067;-34
2023/01/17 12:43:11;;;;;;;3.83;2.00;;;8.40;99.90;;;;;;5093730;28;20446;-35
2023/01/17 12:45:45;;;;;;;3.97;1.92;;;8.40;99.90;;;;;;5093675;28;20024;-34
2023/01/17 12:48:16;;;;;;;2.92;1.50;;;8.40;99.90;;;;;;5093564;28;20024;-35
2023/01/17 12:50:59;;;;;;;3.50;1.73;;;8.30;99.90;;;;;;5094527;28;20178;-34
2023/01/17 12:53:56;;;;;;;5.47;1.50;;;8.30;99.90;;;;;;5093652;28;20036;-35
2023/01/17 12:56:36;;;;;;;3.47;1.70;;;8.20;99.90;;;;;;5093030;28;20024;-34
2023/01/17 12:59:37;;;;;;;2.40;1.33;;;8.20;99.90;;;;;;5093445;28;20043;-35
2023/01/17 13:02:30;;;;;;;6.18;1.50;;;8.20;99.90;;;;;;5093687;28;20039;-34
2023/01/17 13:05:10;;;;;;;4.25;1.20;;;8.20;99.90;;;;;;5093420;28;20016;-35
2023/01/17 13:07:41;;;;;;;2.72;1.40;;;8.00;99.90;;;;;;5092834;28;20028;-34
2023/01/17 13:10:18;;;;;;;2.72;1.40;;;8.00;99.90;;;;;;5094310;28;20112;-34
2023/01/17 13:12:45;;;;;;;1.90;1.27;;;7.90;99.90;;;;;;5095053;28;20397;-34
2023/01/17 13:15:36;;;;;;;2.60;1.48;;;7.90;99.90;;;;;;5093402;28;20032;-34
2023/01/17 13:18:12;;;;;;;3.97;1.30;;;7.90;99.90;;;;;;5093442;28;20039;-34
2023/01/17 13:20:44;;;;;;;3.00;1.48;;;8.00;99.90;;;;;;5093138;28;20035;-34
2023/01/17 13:23:27;;;;;;;4.25;1.42;;;7.90;99.90;;;;;;5092948;28;20024;-34
2023/01/17 13:25:55;;;;;;;2.97;1.23;;;8.00;99.90;;;;;;5093058;28;20496;-35
2023/01/17 13:28:45;;;;;;;2.60;1.33;;;8.00;99.90;;;;;;5092878;28;20501;-35
2023/01/17 13:31:25;;;;;;;2.47;1.50;;;7.90;99.90;;;;;;5093101;28;20093;-34
2023/01/17 13:34:10;;;;;;;4.55;1.63;;;7.90;99.90;;;;;;5092779;28;20028;-34
2023/01/17 13:36:41;;;;;;;;;;;7.90;99.90;;;;;;5093001;28;20030;-34
2023/01/17 13:39:34;;;;;;;3.25;1.55;;;7.90;99.90;;;;;;5092617;28;19904;-34
2023/01/17 13:42:33;;;;;;;2.50;1.40;;;7.90;99.90;;;;;;5092737;28;20036;-34
2023/01/17 13:45:06;;;;;;;3.75;1.63;;;7.90;99.90;;;;;;5092814;28;20101;-35
2023/01/17 13:47:36;;;;;;;2.42;1.33;;;7.90;99.90;;;;;;5092563;28;20040;-35
2023/01/17 13:50:01;;;;;;;2.72;1.50;;;7.80;99.90;;;;;;5092984;28;20012;-34
2023/01/17 13:52:30;;;;;;;2.60;1.35;;;7.80;99.90;;;;;;5092313;28;20023;-35
2023/01/17 13:55:00;;;;;;;3.95;1.50;;;7.80;99.90;;;;;;5092516;28;20023;-34
2023/01/17 13:57:28;;;;;;;3.03;1.60;;;7.80;99.90;;;;;;5092057;28;20039;-34
2023/01/17 13:59:55;;;;;;;3.90;1.60;;;7.80;99.90;;;;;;5092229;28;20382;-34
2023/01/17 14:02:36;;;;;;;3.83;1.80;;;7.60;99.90;;;;;;5092148;28;20036;-35
2023/01/17 14:05:22;;;;;;;1.98;1.38;;;7.60;99.90;;;;;;5092131;28;20016;-35
2023/01/17 14:07:48;;;;;;;2.58;1.30;;;7.60;99.90;;;;;;5093245;28;20044;-34
2023/01/17 14:10:32;;;;;;;2.47;1.42;;;7.60;99.90;;;;;;5092126;28;20077;-35
2023/01/17 14:12:58;;;;;;;3.23;1.50;;;7.60;99.90;;;;;;5092148;28;20024;-35
2023/01/17 14:15:31;;;;;;;1.67;1.30;;;7.60;99.90;;;;;;5092635;28;20467;-34
2023/01/17 14:18:02;;;;;;;1.42;1.25;;;7.70;99.90;;;;;;5091745;28;20031;-34
2023/01/17 14:20:27;;;;;;;3.92;1.45;;;7.70;99.90;;;;;;5091852;28;20044;-34
2023/01/17 14:23:09;;;;;;;2.90;1.40;;;7.70;99.90;;;;;;5091809;28;20063;-35
2023/01/17 14:25:39;;;;;;;4.18;1.58;;;7.70;99.90;;;;;;5091853;28;20114;-35
2023/01/17 14:28:35;;;;;;;3.67;1.38;;;7.70;99.90;;;;;;5091598;28;20054;-35
2023/01/17 14:31:08;;;;;;;4.30;1.52;;;7.60;99.90;;;;;;5091571;28;20036;-34
2023/01/17 14:33:38;;;;;;;3.28;1.50;;;7.60;99.90;;;;;;5092892;28;20058;-35
2023/01/17 14:36:26;;;;;;;3.70;1.30;;;7.50;99.90;;;;;;5092056;28;20019;-35
2023/01/17 14:38:51;;;;;;;3.22;1.50;;;7.40;99.90;;;;;;5091289;28;20055;-35
2023/01/17 14:41:21;;;;;;;3.05;1.15;;;7.40;99.90;;;;;;5091701;28;20480;-35
2023/01/17 14:43:48;;;;;;;3.10;1.60;;;7.40;99.90;;;;;;5091541;28;20439;-35
2023/01/17 14:46:28;;;;;;;2.80;1.48;;;7.40;99.90;;;;;;5091568;28;20020;-35